sensor_id;sensor_type;location;lat;lon;timestamp;P1;durP1;ratioP1;P2;durP2;ratioP2
19848;SDS011;10085;51.120;6.956;2022-09-17T00:04:21;2.40;;;1.30;;
19848;SDS011;10085;51.120;6.956;2022-09-17T00:09:24;2.38;;;1.00;;
19848;SDS011;10085;51.120;6.956;2022-09-17T00:14:28;2.03;;;1.00;;
19848;SDS011;10085;51.120;6.956;2022-09-17T00:19:31;1.25;;;0.90;;
19848;SDS011;10085;51.120;6.956;2022-09-17T00:24:34;2.00;;;1.13;;
19848;SDS011;10085;51.120;6.956;2022-09-17T00:29:38;2.35;;;0.90;;
19848;SDS011;10085;51.120;6.956;2022-09-17T00:34:41;2.50;;;1.10;;
19848;SDS011;10085;51.120;6.956;2022-09-17T00:39:44;1.77;;;1.10;;
19848;SDS011;10085;51.120;6.956;2022-09-17T00:44:49;1.98;;;1.13;;
19848;SDS011;10085;51.120;6.956;2022-09-17T00:49:54;1.08;;;0.88;;
19848;SDS011;10085;51.120;6.956;2022-09-17T00:55:00;1.48;;;1.10;;
19848;SDS011;10085;51.120;6.956;2022-09-17T01:00:09;1.00;;;0.90;;
19848;SDS011;10085;51.120;6.956;2022-09-17T01:05:13;2.70;;;1.27;;
19848;SDS011;10085;51.120;6.956;2022-09-17T01:10:20;2.13;;;1.00;;
19848;SDS011;10085;51.120;6.956;2022-09-17T01:15:35;1.60;;;1.00;;
19848;SDS011;10085;51.120;6.956;2022-09-17T01:20:59;1.58;;;1.00;;
19848;SDS011;10085;51.120;6.956;2022-09-17T01:26:19;1.75;;;0.80;;
19848;SDS011;10085;51.120;6.956;2022-09-17T01:31:36;1.42;;;1.00;;
19848;SDS011;10085;51.120;6.956;2022-09-17T01:36:48;1.20;;;0.90;;
19848;SDS011;10085;51.120;6.956;2022-09-17T01:42:00;1.10;;;0.90;;
19848;SDS011;10085;51.120;6.956;2022-09-17T01:47:14;1.17;;;0.95;;
19848;SDS011;10085;51.120;6.956;2022-09-17T01:52:21;1.08;;;0.98;;
19848;SDS011;10085;51.120;6.956;2022-09-17T01:57:25;1.88;;;0.95;;
19848;SDS011;10085;51.120;6.956;2022-09-17T02:02:32;1.27;;;0.93;;
19848;SDS011;10085;51.120;6.956;2022-09-17T02:07:39;2.40;;;1.10;;
19848;SDS011;10085;51.120;6.956;2022-09-17T02:12:44;2.10;;;0.90;;
19848;SDS011;10085;51.120;6.956;2022-09-17T02:17:53;1.35;;;1.00;;
19848;SDS011;10085;51.120;6.956;2022-09-17T02:22:59;1.42;;;0.90;;
19848;SDS011;10085;51.120;6.956;2022-09-17T02:28:04;0.82;;;0.82;;
19848;SDS011;10085;51.120;6.956;2022-09-17T02:33:14;1.08;;;0.98;;
19848;SDS011;10085;51.120;6.956;2022-09-17T02:38:20;1.60;;;0.85;;
19848;SDS011;10085;51.120;6.956;2022-09-17T02:43:25;1.90;;;1.00;;
19848;SDS011;10085;51.120;6.956;2022-09-17T02:48:37;1.88;;;1.00;;
19848;SDS011;10085;51.120;6.956;2022-09-17T02:53:47;1.70;;;1.00;;
19848;SDS011;10085;51.120;6.956;2022-09-17T02:58:58;1.20;;;0.90;;
19848;SDS011;10085;51.120;6.956;2022-09-17T03:04:07;1.13;;;1.00;;
19848;SDS011;10085;51.120;6.956;2022-09-17T03:09:12;2.53;;;1.00;;
19848;SDS011;10085;51.120;6.956;2022-09-17T03:14:15;0.80;;;0.75;;
19848;SDS011;10085;51.120;6.956;2022-09-17T03:19:22;1.85;;;1.05;;
19848;SDS011;10085;51.120;6.956;2022-09-17T03:24:25;1.00;;;0.90;;
19848;SDS011;10085;51.120;6.956;2022-09-17T03:29:28;1.35;;;1.02;;
19848;SDS011;10085;51.120;6.956;2022-09-17T03:34:32;1.60;;;0.90;;
19848;SDS011;10085;51.120;6.956;2022-09-17T03:39:35;1.50;;;0.90;;
19848;SDS011;10085;51.120;6.956;2022-09-17T03:44:38;1.20;;;0.98;;
19848;SDS011;10085;51.120;6.956;2022-09-17T03:49:47;1.67;;;0.88;;
19848;SDS011;10085;51.120;6.956;2022-09-17T03:54:49;3.13;;;1.02;;
19848;SDS011;10085;51.120;6.956;2022-09-17T03:59:52;2.85;;;1.00;;
19848;SDS011;10085;51.120;6.956;2022-09-17T04:04:56;14.80;;;6.43;;
19848;SDS011;10085;51.120;6.956;2022-09-17T04:09:59;24.92;;;9.93;;
19848;SDS011;10085;51.120;6.956;2022-09-17T04:15:03;26.15;;;12.23;;
19848;SDS011;10085;51.120;6.956;2022-09-17T04:20:08;26.45;;;13.20;;
19848;SDS011;10085;51.120;6.956;2022-09-17T04:25:11;31.67;;;14.00;;
19848;SDS011;10085;51.120;6.956;2022-09-17T04:30:14;30.25;;;13.50;;
19848;SDS011;10085;51.120;6.956;2022-09-17T04:35:18;28.88;;;13.18;;
19848;SDS011;10085;51.120;6.956;2022-09-17T04:40:21;30.13;;;12.57;;
19848;SDS011;10085;51.120;6.956;2022-09-17T04:45:25;27.13;;;12.75;;
19848;SDS011;10085;51.120;6.956;2022-09-17T04:50:29;28.20;;;12.07;;
19848;SDS011;10085;51.120;6.956;2022-09-17T04:55:32;24.52;;;11.48;;
19848;SDS011;10085;51.120;6.956;2022-09-17T05:00:35;25.85;;;11.30;;
19848;SDS011;10085;51.120;6.956;2022-09-17T05:05:39;23.92;;;10.77;;
19848;SDS011;10085;51.120;6.956;2022-09-17T05:10:42;20.77;;;10.18;;
19848;SDS011;10085;51.120;6.956;2022-09-17T05:15:45;24.00;;;9.98;;
19848;SDS011;10085;51.120;6.956;2022-09-17T05:20:49;25.52;;;10.15;;
19848;SDS011;10085;51.120;6.956;2022-09-17T05:25:52;22.67;;;9.50;;
19848;SDS011;10085;51.120;6.956;2022-09-17T05:30:59;18.42;;;9.02;;
19848;SDS011;10085;51.120;6.956;2022-09-17T05:36:04;16.65;;;7.78;;
19848;SDS011;10085;51.120;6.956;2022-09-17T05:41:07;20.95;;;8.35;;
19848;SDS011;10085;51.120;6.956;2022-09-17T05:46:10;16.05;;;7.78;;
19848;SDS011;10085;51.120;6.956;2022-09-17T05:51:14;17.58;;;8.07;;
19848;SDS011;10085;51.120;6.956;2022-09-17T05:56:17;16.30;;;7.28;;
19848;SDS011;10085;51.120;6.956;2022-09-17T06:01:22;16.42;;;6.80;;
19848;SDS011;10085;51.120;6.956;2022-09-17T06:06:27;14.05;;;6.95;;
19848;SDS011;10085;51.120;6.956;2022-09-17T06:11:31;15.48;;;6.57;;
19848;SDS011;10085;51.120;6.956;2022-09-17T06:16:33;13.18;;;6.03;;
19848;SDS011;10085;51.120;6.956;2022-09-17T06:21:38;11.30;;;6.03;;
19848;SDS011;10085;51.120;6.956;2022-09-17T06:26:40;11.52;;;5.85;;
19848;SDS011;10085;51.120;6.956;2022-09-17T06:31:43;10.07;;;5.20;;
19848;SDS011;10085;51.120;6.956;2022-09-17T06:36:48;11.32;;;5.45;;
19848;SDS011;10085;51.120;6.956;2022-09-17T06:41:51;10.70;;;5.20;;
19848;SDS011;10085;51.120;6.956;2022-09-17T06:46:55;10.43;;;4.60;;
19848;SDS011;10085;51.120;6.956;2022-09-17T06:51:59;9.15;;;4.53;;
19848;SDS011;10085;51.120;6.956;2022-09-17T06:57:02;9.65;;;4.47;;
19848;SDS011;10085;51.120;6.956;2022-09-17T07:02:05;8.30;;;4.10;;
19848;SDS011;10085;51.120;6.956;2022-09-17T07:07:10;10.35;;;4.65;;
19848;SDS011;10085;51.120;6.956;2022-09-17T07:12:13;10.77;;;4.88;;
19848;SDS011;10085;51.120;6.956;2022-09-17T07:17:16;7.70;;;3.58;;
19848;SDS011;10085;51.120;6.956;2022-09-17T07:22:20;6.80;;;3.58;;
19848;SDS011;10085;51.120;6.956;2022-09-17T07:27:26;7.88;;;3.20;;
19848;SDS011;10085;51.120;6.956;2022-09-17T07:32:29;9.27;;;3.80;;
19848;SDS011;10085;51.120;6.956;2022-09-17T07:37:33;6.68;;;3.65;;
19848;SDS011;10085;51.120;6.956;2022-09-17T07:42:36;8.27;;;3.40;;
19848;SDS011;10085;51.120;6.956;2022-09-17T07:47:39;5.45;;;3.10;;
19848;SDS011;10085;51.120;6.956;2022-09-17T07:52:45;5.88;;;3.00;;
19848;SDS011;10085;51.120;6.956;2022-09-17T07:57:51;5.50;;;2.72;;
19848;SDS011;10085;51.120;6.956;2022-09-17T08:02:54;4.40;;;2.80;;
19848;SDS011;10085;51.120;6.956;2022-09-17T08:07:59;5.10;;;2.78;;
19848;SDS011;10085;51.120;6.956;2022-09-17T08:13:01;5.18;;;2.67;;
19848;SDS011;10085;51.120;6.956;2022-09-17T08:18:04;4.90;;;2.80;;
19848;SDS011;10085;51.120;6.956;2022-09-17T08:23:08;7.10;;;2.30;;
19848;SDS011;10085;51.120;6.956;2022-09-17T08:28:11;3.95;;;2.38;;
19848;SDS011;10085;51.120;6.956;2022-09-17T08:33:14;3.38;;;2.20;;
19848;SDS011;10085;51.120;6.956;2022-09-17T08:38:18;4.60;;;2.40;;
19848;SDS011;10085;51.120;6.956;2022-09-17T08:43:21;4.20;;;2.20;;
19848;SDS011;10085;51.120;6.956;2022-09-17T08:48:24;6.78;;;2.50;;
19848;SDS011;10085;51.120;6.956;2022-09-17T08:53:36;5.28;;;2.20;;
19848;SDS011;10085;51.120;6.956;2022-09-17T08:58:49;5.10;;;2.38;;
19848;SDS011;10085;51.120;6.956;2022-09-17T09:04:26;4.03;;;2.15;;
19848;SDS011;10085;51.120;6.956;2022-09-17T09:09:38;3.22;;;2.00;;
19848;SDS011;10085;51.120;6.956;2022-09-17T09:14:46;4.05;;;2.10;;
19848;SDS011;10085;51.120;6.956;2022-09-17T09:19:50;3.40;;;2.00;;
19848;SDS011;10085;51.120;6.956;2022-09-17T09:24:58;4.65;;;2.28;;
19848;SDS011;10085;51.120;6.956;2022-09-17T09:30:08;4.88;;;2.05;;
19848;SDS011;10085;51.120;6.956;2022-09-17T09:35:15;3.30;;;1.95;;
19848;SDS011;10085;51.120;6.956;2022-09-17T09:40:24;2.75;;;1.88;;
19848;SDS011;10085;51.120;6.956;2022-09-17T09:45:36;2.35;;;1.73;;
19848;SDS011;10085;51.120;6.956;2022-09-17T09:50:46;2.78;;;1.70;;
19848;SDS011;10085;51.120;6.956;2022-09-17T09:56:13;2.40;;;1.50;;
19848;SDS011;10085;51.120;6.956;2022-09-17T10:01:28;3.20;;;1.58;;
19848;SDS011;10085;51.120;6.956;2022-09-17T10:06:31;3.05;;;1.80;;
19848;SDS011;10085;51.120;6.956;2022-09-17T10:11:36;2.53;;;1.50;;
19848;SDS011;10085;51.120;6.956;2022-09-17T10:16:39;2.72;;;1.70;;
19848;SDS011;10085;51.120;6.956;2022-09-17T10:21:42;2.33;;;1.50;;
19848;SDS011;10085;51.120;6.956;2022-09-17T10:26:46;3.20;;;1.65;;
19848;SDS011;10085;51.120;6.956;2022-09-17T10:31:50;2.00;;;1.35;;
19848;SDS011;10085;51.120;6.956;2022-09-17T10:36:54;2.63;;;1.50;;
19848;SDS011;10085;51.120;6.956;2022-09-17T10:42:00;3.33;;;1.65;;
19848;SDS011;10085;51.120;6.956;2022-09-17T10:47:04;2.08;;;1.38;;
19848;SDS011;10085;51.120;6.956;2022-09-17T10:52:09;2.78;;;1.70;;
19848;SDS011;10085;51.120;6.956;2022-09-17T10:57:17;1.92;;;1.60;;
19848;SDS011;10085;51.120;6.956;2022-09-17T11:07:48;2.40;;;1.23;;
19848;SDS011;10085;51.120;6.956;2022-09-17T11:12:58;2.38;;;1.48;;
19848;SDS011;10085;51.120;6.956;2022-09-17T11:23:54;1.73;;;1.10;;
19848;SDS011;10085;51.120;6.956;2022-09-17T11:29:15;2.70;;;1.38;;
19848;SDS011;10085;51.120;6.956;2022-09-17T11:34:31;2.63;;;1.40;;
19848;SDS011;10085;51.120;6.956;2022-09-17T11:39:39;1.42;;;1.20;;
19848;SDS011;10085;51.120;6.956;2022-09-17T11:44:48;2.92;;;1.30;;
19848;SDS011;10085;51.120;6.956;2022-09-17T11:49:53;1.80;;;1.20;;
19848;SDS011;10085;51.120;6.956;2022-09-17T11:55:00;2.35;;;1.15;;
19848;SDS011;10085;51.120;6.956;2022-09-17T12:00:17;2.47;;;1.20;;
19848;SDS011;10085;51.120;6.956;2022-09-17T12:05:24;1.58;;;1.00;;
19848;SDS011;10085;51.120;6.956;2022-09-17T12:10:33;4.10;;;1.13;;
19848;SDS011;10085;51.120;6.956;2022-09-17T12:15:44;2.13;;;1.13;;
19848;SDS011;10085;51.120;6.956;2022-09-17T12:20:54;1.70;;;1.00;;
19848;SDS011;10085;51.120;6.956;2022-09-17T12:26:01;1.42;;;1.05;;
19848;SDS011;10085;51.120;6.956;2022-09-17T12:31:13;1.10;;;0.95;;
19848;SDS011;10085;51.120;6.956;2022-09-17T12:36:23;1.95;;;1.00;;
19848;SDS011;10085;51.120;6.956;2022-09-17T12:41:36;2.20;;;1.10;;
19848;SDS011;10085;51.120;6.956;2022-09-17T12:46:52;1.73;;;1.00;;
19848;SDS011;10085;51.120;6.956;2022-09-17T12:51:59;3.00;;;1.00;;
19848;SDS011;10085;51.120;6.956;2022-09-17T12:57:06;1.70;;;1.30;;
19848;SDS011;10085;51.120;6.956;2022-09-17T13:02:16;3.08;;;1.10;;
19848;SDS011;10085;51.120;6.956;2022-09-17T13:12:59;1.00;;;0.90;;
19848;SDS011;10085;51.120;6.956;2022-09-17T13:18:11;1.42;;;0.90;;
19848;SDS011;10085;51.120;6.956;2022-09-17T13:23:28;1.15;;;0.90;;
19848;SDS011;10085;51.120;6.956;2022-09-17T13:28:41;1.35;;;0.80;;
19848;SDS011;10085;51.120;6.956;2022-09-17T13:33:56;1.73;;;0.90;;
19848;SDS011;10085;51.120;6.956;2022-09-17T13:38:59;1.85;;;1.05;;
19848;SDS011;10085;51.120;6.956;2022-09-17T13:44:03;4.38;;;1.13;;
19848;SDS011;10085;51.120;6.956;2022-09-17T13:49:12;5.28;;;1.20;;
19848;SDS011;10085;51.120;6.956;2022-09-17T13:54:17;2.50;;;1.10;;
19848;SDS011;10085;51.120;6.956;2022-09-17T13:59:22;4.60;;;1.38;;
19848;SDS011;10085;51.120;6.956;2022-09-17T14:04:33;3.28;;;1.10;;
19848;SDS011;10085;51.120;6.956;2022-09-17T14:09:49;3.90;;;1.27;;
19848;SDS011;10085;51.120;6.956;2022-09-17T14:14:53;5.78;;;1.15;;
19848;SDS011;10085;51.120;6.956;2022-09-17T14:19:57;4.50;;;1.23;;
19848;SDS011;10085;51.120;6.956;2022-09-17T14:25:13;4.38;;;1.30;;
19848;SDS011;10085;51.120;6.956;2022-09-17T14:30:18;5.93;;;1.55;;
19848;SDS011;10085;51.120;6.956;2022-09-17T14:35:25;4.88;;;1.30;;
19848;SDS011;10085;51.120;6.956;2022-09-17T14:40:31;2.50;;;1.30;;
19848;SDS011;10085;51.120;6.956;2022-09-17T14:45:35;2.28;;;1.30;;
19848;SDS011;10085;51.120;6.956;2022-09-17T14:50:44;2.67;;;1.35;;
19848;SDS011;10085;51.120;6.956;2022-09-17T14:55:47;2.53;;;1.20;;
19848;SDS011;10085;51.120;6.956;2022-09-17T15:00:51;5.30;;;1.40;;
19848;SDS011;10085;51.120;6.956;2022-09-17T15:05:56;6.47;;;1.30;;
19848;SDS011;10085;51.120;6.956;2022-09-17T15:10:59;1.73;;;1.20;;
19848;SDS011;10085;51.120;6.956;2022-09-17T15:16:04;3.78;;;1.23;;
19848;SDS011;10085;51.120;6.956;2022-09-17T15:21:22;4.00;;;1.20;;
19848;SDS011;10085;51.120;6.956;2022-09-17T15:26:29;5.50;;;1.40;;
19848;SDS011;10085;51.120;6.956;2022-09-17T15:31:34;4.43;;;1.27;;
19848;SDS011;10085;51.120;6.956;2022-09-17T15:36:39;3.83;;;1.17;;
19848;SDS011;10085;51.120;6.956;2022-09-17T15:41:42;5.00;;;1.20;;
19848;SDS011;10085;51.120;6.956;2022-09-17T15:46:44;1.45;;;1.05;;
19848;SDS011;10085;51.120;6.956;2022-09-17T15:51:49;4.82;;;1.20;;
19848;SDS011;10085;51.120;6.956;2022-09-17T15:56:53;4.13;;;0.98;;
19848;SDS011;10085;51.120;6.956;2022-09-17T16:01:58;2.17;;;1.05;;
19848;SDS011;10085;51.120;6.956;2022-09-17T16:12:39;2.40;;;1.25;;
19848;SDS011;10085;51.120;6.956;2022-09-17T16:17:43;1.27;;;1.00;;
19848;SDS011;10085;51.120;6.956;2022-09-17T16:22:49;2.25;;;1.00;;
19848;SDS011;10085;51.120;6.956;2022-09-17T16:27:52;3.97;;;0.93;;
19848;SDS011;10085;51.120;6.956;2022-09-17T16:32:57;3.60;;;1.15;;
19848;SDS011;10085;51.120;6.956;2022-09-17T16:38:05;2.47;;;1.00;;
19848;SDS011;10085;51.120;6.956;2022-09-17T16:43:08;2.25;;;1.10;;
19848;SDS011;10085;51.120;6.956;2022-09-17T16:48:11;2.60;;;1.15;;
19848;SDS011;10085;51.120;6.956;2022-09-17T16:53:15;2.78;;;1.15;;
19848;SDS011;10085;51.120;6.956;2022-09-17T16:58:17;2.53;;;1.00;;
19848;SDS011;10085;51.120;6.956;2022-09-17T17:03:20;3.40;;;1.00;;
19848;SDS011;10085;51.120;6.956;2022-09-17T17:08:24;2.70;;;1.08;;
19848;SDS011;10085;51.120;6.956;2022-09-17T17:13:27;2.80;;;1.30;;
19848;SDS011;10085;51.120;6.956;2022-09-17T17:18:30;1.60;;;0.90;;
19848;SDS011;10085;51.120;6.956;2022-09-17T17:23:34;1.38;;;1.00;;
19848;SDS011;10085;51.120;6.956;2022-09-17T17:28:37;2.08;;;0.90;;
19848;SDS011;10085;51.120;6.956;2022-09-17T17:33:40;2.30;;;0.98;;
19848;SDS011;10085;51.120;6.956;2022-09-17T17:38:44;1.60;;;1.00;;
19848;SDS011;10085;51.120;6.956;2022-09-17T17:43:46;3.08;;;1.02;;
19848;SDS011;10085;51.120;6.956;2022-09-17T17:48:49;1.90;;;1.00;;
19848;SDS011;10085;51.120;6.956;2022-09-17T17:53:54;1.42;;;1.02;;
19848;SDS011;10085;51.120;6.956;2022-09-17T17:58:56;1.65;;;0.85;;
19848;SDS011;10085;51.120;6.956;2022-09-17T18:04:01;4.10;;;1.00;;
19848;SDS011;10085;51.120;6.956;2022-09-17T18:09:06;3.08;;;0.98;;
19848;SDS011;10085;51.120;6.956;2022-09-17T18:14:10;1.70;;;1.00;;
19848;SDS011;10085;51.120;6.956;2022-09-17T18:19:14;1.55;;;0.90;;
19848;SDS011;10085;51.120;6.956;2022-09-17T18:24:18;2.50;;;1.02;;
19848;SDS011;10085;51.120;6.956;2022-09-17T18:29:21;1.88;;;1.10;;
19848;SDS011;10085;51.120;6.956;2022-09-17T18:34:23;1.73;;;1.00;;
19848;SDS011;10085;51.120;6.956;2022-09-17T18:39:27;2.75;;;0.95;;
19848;SDS011;10085;51.120;6.956;2022-09-17T18:44:50;2.13;;;1.02;;
19848;SDS011;10085;51.120;6.956;2022-09-17T18:49:53;1.27;;;0.90;;
19848;SDS011;10085;51.120;6.956;2022-09-17T18:54:57;2.85;;;1.02;;
19848;SDS011;10085;51.120;6.956;2022-09-17T19:00:01;2.63;;;1.10;;
19848;SDS011;10085;51.120;6.956;2022-09-17T19:05:07;2.70;;;0.90;;
19848;SDS011;10085;51.120;6.956;2022-09-17T19:10:11;1.75;;;1.05;;
19848;SDS011;10085;51.120;6.956;2022-09-17T19:15:14;1.95;;;1.00;;
19848;SDS011;10085;51.120;6.956;2022-09-17T19:20:17;1.65;;;0.95;;
19848;SDS011;10085;51.120;6.956;2022-09-17T19:25:21;1.95;;;0.90;;
19848;SDS011;10085;51.120;6.956;2022-09-17T19:30:24;1.83;;;1.00;;
19848;SDS011;10085;51.120;6.956;2022-09-17T19:35:30;1.95;;;0.82;;
19848;SDS011;10085;51.120;6.956;2022-09-17T19:40:34;1.05;;;0.95;;
19848;SDS011;10085;51.120;6.956;2022-09-17T19:45:37;1.52;;;0.90;;
19848;SDS011;10085;51.120;6.956;2022-09-17T19:50:48;3.15;;;1.13;;
19848;SDS011;10085;51.120;6.956;2022-09-17T19:55:55;1.77;;;1.10;;
19848;SDS011;10085;51.120;6.956;2022-09-17T20:00:58;2.15;;;1.10;;
19848;SDS011;10085;51.120;6.956;2022-09-17T20:06:01;1.63;;;1.00;;
19848;SDS011;10085;51.120;6.956;2022-09-17T20:11:07;1.55;;;1.00;;
19848;SDS011;10085;51.120;6.956;2022-09-17T20:16:11;1.67;;;1.20;;
19848;SDS011;10085;51.120;6.956;2022-09-17T20:21:16;2.28;;;1.10;;
19848;SDS011;10085;51.120;6.956;2022-09-17T20:26:21;2.22;;;1.05;;
19848;SDS011;10085;51.120;6.956;2022-09-17T20:31:25;1.55;;;1.13;;
19848;SDS011;10085;51.120;6.956;2022-09-17T20:36:29;1.60;;;1.20;;
19848;SDS011;10085;51.120;6.956;2022-09-17T20:41:35;3.05;;;1.10;;
19848;SDS011;10085;51.120;6.956;2022-09-17T20:46:38;2.78;;;1.38;;
19848;SDS011;10085;51.120;6.956;2022-09-17T20:51:41;2.38;;;1.30;;
19848;SDS011;10085;51.120;6.956;2022-09-17T20:56:45;1.75;;;1.10;;
19848;SDS011;10085;51.120;6.956;2022-09-17T21:01:49;3.95;;;1.20;;
19848;SDS011;10085;51.120;6.956;2022-09-17T21:06:53;1.98;;;1.10;;
19848;SDS011;10085;51.120;6.956;2022-09-17T21:11:58;2.20;;;1.38;;
19848;SDS011;10085;51.120;6.956;2022-09-17T21:17:00;2.63;;;1.20;;
19848;SDS011;10085;51.120;6.956;2022-09-17T21:22:04;1.45;;;1.13;;
19848;SDS011;10085;51.120;6.956;2022-09-17T21:27:08;2.38;;;1.05;;
19848;SDS011;10085;51.120;6.956;2022-09-17T21:32:10;1.05;;;0.95;;
19848;SDS011;10085;51.120;6.956;2022-09-17T21:37:13;1.88;;;0.98;;
19848;SDS011;10085;51.120;6.956;2022-09-17T21:42:17;1.73;;;1.00;;
19848;SDS011;10085;51.120;6.956;2022-09-17T21:47:20;2.78;;;1.10;;
19848;SDS011;10085;51.120;6.956;2022-09-17T21:52:23;4.15;;;1.00;;
19848;SDS011;10085;51.120;6.956;2022-09-17T21:57:27;1.30;;;1.00;;
19848;SDS011;10085;51.120;6.956;2022-09-17T22:02:30;1.92;;;1.05;;
19848;SDS011;10085;51.120;6.956;2022-09-17T22:07:33;1.65;;;1.00;;
19848;SDS011;10085;51.120;6.956;2022-09-17T22:12:37;1.88;;;1.10;;
19848;SDS011;10085;51.120;6.956;2022-09-17T22:17:40;1.75;;;0.90;;
19848;SDS011;10085;51.120;6.956;2022-09-17T22:23:17;3.50;;;1.10;;
19848;SDS011;10085;51.120;6.956;2022-09-17T22:28:22;4.05;;;1.23;;
19848;SDS011;10085;51.120;6.956;2022-09-17T22:33:25;1.67;;;1.00;;
19848;SDS011;10085;51.120;6.956;2022-09-17T22:38:27;1.80;;;1.13;;
19848;SDS011;10085;51.120;6.956;2022-09-17T22:43:32;1.75;;;0.93;;
19848;SDS011;10085;51.120;6.956;2022-09-17T22:48:34;2.53;;;1.02;;
19848;SDS011;10085;51.120;6.956;2022-09-17T22:53:37;2.90;;;1.10;;
19848;SDS011;10085;51.120;6.956;2022-09-17T22:58:42;1.90;;;0.80;;
19848;SDS011;10085;51.120;6.956;2022-09-17T23:03:45;1.88;;;1.00;;
19848;SDS011;10085;51.120;6.956;2022-09-17T23:08:49;1.40;;;0.93;;
19848;SDS011;10085;51.120;6.956;2022-09-17T23:13:54;1.85;;;1.02;;
19848;SDS011;10085;51.120;6.956;2022-09-17T23:18:58;1.27;;;0.93;;
19848;SDS011;10085;51.120;6.956;2022-09-17T23:24:01;2.60;;;1.17;;
19848;SDS011;10085;51.120;6.956;2022-09-17T23:29:05;4.15;;;1.20;;
19848;SDS011;10085;51.120;6.956;2022-09-17T23:34:08;2.75;;;1.20;;
19848;SDS011;10085;51.120;6.956;2022-09-17T23:39:11;1.67;;;0.90;;
19848;SDS011;10085;51.120;6.956;2022-09-17T23:44:15;2.63;;;1.00;;
19848;SDS011;10085;51.120;6.956;2022-09-17T23:49:18;3.28;;;1.08;;
19848;SDS011;10085;51.120;6.956;2022-09-17T23:54:20;4.18;;;1.10;;
19848;SDS011;10085;51.120;6.956;2022-09-17T23:59:25;3.65;;;1.20;;
